sensor_id;sensor_type;location;lat;lon;timestamp;P1;durP1;ratioP1;P2;durP2;ratioP2
51981;SDS011;37998;53.416;6.730;2023-08-17T00:00:26;4.90;;;2.88;;
51981;SDS011;37998;53.416;6.730;2023-08-17T00:02:52;9.77;;;4.35;;
51981;SDS011;37998;53.416;6.730;2023-08-17T00:05:18;5.10;;;2.97;;
51981;SDS011;37998;53.416;6.730;2023-08-17T00:07:44;5.63;;;2.90;;
51981;SDS011;37998;53.416;6.730;2023-08-17T00:10:10;4.88;;;3.20;;
51981;SDS011;37998;53.416;6.730;2023-08-17T00:12:36;7.28;;;3.25;;
51981;SDS011;37998;53.416;6.730;2023-08-17T00:15:02;6.70;;;3.38;;
51981;SDS011;37998;53.416;6.730;2023-08-17T00:17:29;7.15;;;3.55;;
51981;SDS011;37998;53.416;6.730;2023-08-17T00:19:55;5.47;;;3.08;;
51981;SDS011;37998;53.416;6.730;2023-08-17T00:22:21;6.95;;;3.13;;
51981;SDS011;37998;53.416;6.730;2023-08-17T00:24:47;10.18;;;3.25;;
51981;SDS011;37998;53.416;6.730;2023-08-17T00:27:13;5.80;;;3.20;;
51981;SDS011;37998;53.416;6.730;2023-08-17T00:29:39;10.70;;;3.35;;
51981;SDS011;37998;53.416;6.730;2023-08-17T00:32:05;5.90;;;2.55;;
51981;SDS011;37998;53.416;6.730;2023-08-17T00:34:31;7.13;;;2.83;;
51981;SDS011;37998;53.416;6.730;2023-08-17T00:36:58;8.00;;;3.00;;
51981;SDS011;37998;53.416;6.730;2023-08-17T00:39:24;4.25;;;2.42;;
51981;SDS011;37998;53.416;6.730;2023-08-17T00:41:50;8.18;;;2.85;;
51981;SDS011;37998;53.416;6.730;2023-08-17T00:44:18;4.75;;;2.35;;
51981;SDS011;37998;53.416;6.730;2023-08-17T00:46:44;8.05;;;2.75;;
51981;SDS011;37998;53.416;6.730;2023-08-17T00:49:11;8.48;;;2.78;;
51981;SDS011;37998;53.416;6.730;2023-08-17T00:51:38;7.10;;;2.58;;
51981;SDS011;37998;53.416;6.730;2023-08-17T00:54:04;5.90;;;2.92;;
51981;SDS011;37998;53.416;6.730;2023-08-17T00:56:30;5.78;;;2.50;;
51981;SDS011;37998;53.416;6.730;2023-08-17T00:58:57;6.00;;;2.90;;
51981;SDS011;37998;53.416;6.730;2023-08-17T01:01:23;8.10;;;3.50;;
51981;SDS011;37998;53.416;6.730;2023-08-17T01:03:49;4.63;;;3.15;;
51981;SDS011;37998;53.416;6.730;2023-08-17T01:06:15;6.30;;;3.63;;
51981;SDS011;37998;53.416;6.730;2023-08-17T01:08:41;5.28;;;4.30;;
51981;SDS011;37998;53.416;6.730;2023-08-17T01:11:13;10.43;;;4.63;;
51981;SDS011;37998;53.416;6.730;2023-08-17T01:14:22;6.50;;;3.92;;
51981;SDS011;37998;53.416;6.730;2023-08-17T01:16:56;3.83;;;3.17;;
51981;SDS011;37998;53.416;6.730;2023-08-17T01:19:31;5.78;;;3.03;;
51981;SDS011;37998;53.416;6.730;2023-08-17T01:22:03;4.95;;;2.95;;
51981;SDS011;37998;53.416;6.730;2023-08-17T01:24:31;3.73;;;2.67;;
51981;SDS011;37998;53.416;6.730;2023-08-17T01:26:57;5.13;;;2.70;;
51981;SDS011;37998;53.416;6.730;2023-08-17T01:29:23;4.05;;;2.13;;
51981;SDS011;37998;53.416;6.730;2023-08-17T01:34:22;7.28;;;1.98;;
51981;SDS011;37998;53.416;6.730;2023-08-17T01:36:52;5.88;;;2.30;;
51981;SDS011;37998;53.416;6.730;2023-08-17T01:39:22;4.70;;;2.22;;
51981;SDS011;37998;53.416;6.730;2023-08-17T01:41:52;3.58;;;1.90;;
51981;SDS011;37998;53.416;6.730;2023-08-17T01:44:22;4.78;;;1.70;;
51981;SDS011;37998;53.416;6.730;2023-08-17T01:46:50;6.03;;;2.05;;
51981;SDS011;37998;53.416;6.730;2023-08-17T01:49:16;4.72;;;2.00;;
51981;SDS011;37998;53.416;6.730;2023-08-17T01:51:42;4.50;;;1.75;;
51981;SDS011;37998;53.416;6.730;2023-08-17T01:54:08;3.10;;;1.50;;
51981;SDS011;37998;53.416;6.730;2023-08-17T01:56:34;2.45;;;1.70;;
51981;SDS011;37998;53.416;6.730;2023-08-17T01:59:00;4.30;;;1.75;;
51981;SDS011;37998;53.416;6.730;2023-08-17T02:01:26;3.95;;;1.60;;
51981;SDS011;37998;53.416;6.730;2023-08-17T02:03:52;2.95;;;1.70;;
51981;SDS011;37998;53.416;6.730;2023-08-17T02:06:18;4.88;;;1.80;;
51981;SDS011;37998;53.416;6.730;2023-08-17T02:08:44;3.00;;;1.60;;
51981;SDS011;37998;53.416;6.730;2023-08-17T02:11:10;4.93;;;1.73;;
51981;SDS011;37998;53.416;6.730;2023-08-17T02:13:37;3.90;;;1.67;;
51981;SDS011;37998;53.416;6.730;2023-08-17T02:16:04;5.00;;;1.90;;
51981;SDS011;37998;53.416;6.730;2023-08-17T02:18:30;5.25;;;1.60;;
51981;SDS011;37998;53.416;6.730;2023-08-17T02:20:58;5.18;;;1.88;;
51981;SDS011;37998;53.416;6.730;2023-08-17T02:23:24;6.18;;;2.10;;
51981;SDS011;37998;53.416;6.730;2023-08-17T02:25:51;2.47;;;1.70;;
51981;SDS011;37998;53.416;6.730;2023-08-17T02:28:20;5.05;;;2.00;;
51981;SDS011;37998;53.416;6.730;2023-08-17T02:30:47;4.60;;;1.75;;
51981;SDS011;37998;53.416;6.730;2023-08-17T02:33:14;5.65;;;1.60;;
51981;SDS011;37998;53.416;6.730;2023-08-17T02:35:40;3.58;;;2.08;;
51981;SDS011;37998;53.416;6.730;2023-08-17T02:38:06;4.13;;;1.73;;
51981;SDS011;37998;53.416;6.730;2023-08-17T02:40:32;5.68;;;1.77;;
51981;SDS011;37998;53.416;6.730;2023-08-17T02:42:58;3.70;;;2.00;;
51981;SDS011;37998;53.416;6.730;2023-08-17T02:45:24;6.22;;;1.95;;
51981;SDS011;37998;53.416;6.730;2023-08-17T02:47:50;3.88;;;1.88;;
51981;SDS011;37998;53.416;6.730;2023-08-17T02:50:16;7.07;;;1.92;;
51981;SDS011;37998;53.416;6.730;2023-08-17T02:52:42;4.72;;;1.85;;
51981;SDS011;37998;53.416;6.730;2023-08-17T02:55:08;5.38;;;1.63;;
51981;SDS011;37998;53.416;6.730;2023-08-17T02:57:34;3.13;;;1.58;;
51981;SDS011;37998;53.416;6.730;2023-08-17T03:00:00;3.35;;;1.70;;
51981;SDS011;37998;53.416;6.730;2023-08-17T03:02:28;5.60;;;1.83;;
51981;SDS011;37998;53.416;6.730;2023-08-17T03:04:54;6.97;;;1.98;;
51981;SDS011;37998;53.416;6.730;2023-08-17T03:07:21;5.78;;;2.00;;
51981;SDS011;37998;53.416;6.730;2023-08-17T03:09:47;3.55;;;1.77;;
51981;SDS011;37998;53.416;6.730;2023-08-17T03:12:13;3.88;;;1.55;;
51981;SDS011;37998;53.416;6.730;2023-08-17T03:14:39;2.35;;;1.65;;
51981;SDS011;37998;53.416;6.730;2023-08-17T03:17:05;4.75;;;1.80;;
51981;SDS011;37998;53.416;6.730;2023-08-17T03:19:31;4.57;;;2.03;;
51981;SDS011;37998;53.416;6.730;2023-08-17T03:21:57;6.00;;;1.77;;
51981;SDS011;37998;53.416;6.730;2023-08-17T03:24:23;4.03;;;1.60;;
51981;SDS011;37998;53.416;6.730;2023-08-17T03:26:51;5.00;;;1.85;;
51981;SDS011;37998;53.416;6.730;2023-08-17T03:29:17;5.20;;;1.80;;
51981;SDS011;37998;53.416;6.730;2023-08-17T03:31:42;4.75;;;2.03;;
51981;SDS011;37998;53.416;6.730;2023-08-17T03:34:09;5.70;;;2.20;;
51981;SDS011;37998;53.416;6.730;2023-08-17T03:36:35;4.05;;;1.90;;
51981;SDS011;37998;53.416;6.730;2023-08-17T03:39:01;4.00;;;1.90;;
51981;SDS011;37998;53.416;6.730;2023-08-17T03:41:27;3.00;;;2.00;;
51981;SDS011;37998;53.416;6.730;2023-08-17T03:43:53;2.80;;;1.50;;
51981;SDS011;37998;53.416;6.730;2023-08-17T03:46:24;6.78;;;1.73;;
51981;SDS011;37998;53.416;6.730;2023-08-17T03:48:50;3.10;;;1.80;;
51981;SDS011;37998;53.416;6.730;2023-08-17T03:51:16;4.18;;;1.73;;
51981;SDS011;37998;53.416;6.730;2023-08-17T03:53:42;2.88;;;1.83;;
51981;SDS011;37998;53.416;6.730;2023-08-17T03:56:08;5.03;;;2.10;;
51981;SDS011;37998;53.416;6.730;2023-08-17T03:58:34;3.85;;;1.58;;
51981;SDS011;37998;53.416;6.730;2023-08-17T04:01:00;4.57;;;1.90;;
51981;SDS011;37998;53.416;6.730;2023-08-17T04:03:29;3.83;;;1.52;;
51981;SDS011;37998;53.416;6.730;2023-08-17T04:05:55;4.35;;;1.63;;
51981;SDS011;37998;53.416;6.730;2023-08-17T04:08:21;5.57;;;1.77;;
51981;SDS011;37998;53.416;6.730;2023-08-17T04:10:47;5.80;;;1.90;;
51981;SDS011;37998;53.416;6.730;2023-08-17T04:13:13;3.20;;;1.95;;
51981;SDS011;37998;53.416;6.730;2023-08-17T04:15:38;4.45;;;1.88;;
51981;SDS011;37998;53.416;6.730;2023-08-17T04:18:05;5.82;;;1.92;;
51981;SDS011;37998;53.416;6.730;2023-08-17T04:20:31;4.68;;;2.20;;
51981;SDS011;37998;53.416;6.730;2023-08-17T04:22:57;6.47;;;2.17;;
51981;SDS011;37998;53.416;6.730;2023-08-17T04:25:23;2.20;;;2.00;;
51981;SDS011;37998;53.416;6.730;2023-08-17T04:27:49;4.03;;;2.20;;
51981;SDS011;37998;53.416;6.730;2023-08-17T04:30:15;4.05;;;2.28;;
51981;SDS011;37998;53.416;6.730;2023-08-17T04:32:49;3.13;;;1.77;;
51981;SDS011;37998;53.416;6.730;2023-08-17T04:35:19;5.75;;;2.30;;
51981;SDS011;37998;53.416;6.730;2023-08-17T04:37:46;4.72;;;2.13;;
51981;SDS011;37998;53.416;6.730;2023-08-17T04:40:15;4.90;;;1.70;;
51981;SDS011;37998;53.416;6.730;2023-08-17T04:42:42;6.25;;;2.00;;
51981;SDS011;37998;53.416;6.730;2023-08-17T04:45:08;3.83;;;1.88;;
51981;SDS011;37998;53.416;6.730;2023-08-17T04:47:38;4.40;;;2.10;;
51981;SDS011;37998;53.416;6.730;2023-08-17T04:50:05;4.40;;;2.65;;
51981;SDS011;37998;53.416;6.730;2023-08-17T04:52:33;5.13;;;2.00;;
51981;SDS011;37998;53.416;6.730;2023-08-17T04:54:59;8.15;;;2.50;;
51981;SDS011;37998;53.416;6.730;2023-08-17T04:57:25;9.88;;;2.25;;
51981;SDS011;37998;53.416;6.730;2023-08-17T04:59:52;4.90;;;2.17;;
51981;SDS011;37998;53.416;6.730;2023-08-17T05:02:19;5.57;;;2.25;;
51981;SDS011;37998;53.416;6.730;2023-08-17T05:04:46;4.20;;;1.77;;
51981;SDS011;37998;53.416;6.730;2023-08-17T05:07:12;9.00;;;2.40;;
51981;SDS011;37998;53.416;6.730;2023-08-17T05:09:38;5.68;;;2.20;;
51981;SDS011;37998;53.416;6.730;2023-08-17T05:12:06;4.07;;;2.13;;
51981;SDS011;37998;53.416;6.730;2023-08-17T05:14:32;3.92;;;2.05;;
51981;SDS011;37998;53.416;6.730;2023-08-17T05:16:58;8.13;;;2.92;;
51981;SDS011;37998;53.416;6.730;2023-08-17T05:19:27;6.38;;;2.45;;
51981;SDS011;37998;53.416;6.730;2023-08-17T05:21:54;4.78;;;2.28;;
51981;SDS011;37998;53.416;6.730;2023-08-17T05:24:21;4.97;;;2.42;;
51981;SDS011;37998;53.416;6.730;2023-08-17T05:26:47;5.68;;;2.20;;
51981;SDS011;37998;53.416;6.730;2023-08-17T05:29:16;7.03;;;2.55;;
51981;SDS011;37998;53.416;6.730;2023-08-17T05:31:42;8.35;;;2.50;;
51981;SDS011;37998;53.416;6.730;2023-08-17T05:34:09;5.63;;;2.40;;
51981;SDS011;37998;53.416;6.730;2023-08-17T05:36:36;8.57;;;2.55;;
51981;SDS011;37998;53.416;6.730;2023-08-17T05:39:02;4.78;;;1.80;;
51981;SDS011;37998;53.416;6.730;2023-08-17T05:41:29;5.28;;;2.10;;
51981;SDS011;37998;53.416;6.730;2023-08-17T05:43:55;6.75;;;2.20;;
51981;SDS011;37998;53.416;6.730;2023-08-17T05:46:21;6.88;;;2.55;;
51981;SDS011;37998;53.416;6.730;2023-08-17T05:48:47;2.05;;;1.65;;
51981;SDS011;37998;53.416;6.730;2023-08-17T05:51:13;6.13;;;2.38;;
51981;SDS011;37998;53.416;6.730;2023-08-17T05:53:39;5.43;;;1.95;;
51981;SDS011;37998;53.416;6.730;2023-08-17T05:56:05;7.05;;;1.95;;
51981;SDS011;37998;53.416;6.730;2023-08-17T05:58:30;4.97;;;1.77;;
51981;SDS011;37998;53.416;6.730;2023-08-17T06:01:03;5.70;;;1.98;;
51981;SDS011;37998;53.416;6.730;2023-08-17T06:03:33;4.78;;;2.13;;
51981;SDS011;37998;53.416;6.730;2023-08-17T06:06:00;6.30;;;2.08;;
51981;SDS011;37998;53.416;6.730;2023-08-17T06:08:26;5.43;;;1.85;;
51981;SDS011;37998;53.416;6.730;2023-08-17T06:10:51;6.40;;;2.17;;
51981;SDS011;37998;53.416;6.730;2023-08-17T06:13:18;6.30;;;2.00;;
51981;SDS011;37998;53.416;6.730;2023-08-17T06:15:44;6.72;;;1.88;;
51981;SDS011;37998;53.416;6.730;2023-08-17T06:18:10;8.15;;;2.10;;
51981;SDS011;37998;53.416;6.730;2023-08-17T06:20:36;3.22;;;2.00;;
51981;SDS011;37998;53.416;6.730;2023-08-17T06:23:02;4.68;;;1.60;;
51981;SDS011;37998;53.416;6.730;2023-08-17T06:25:28;5.10;;;2.22;;
51981;SDS011;37998;53.416;6.730;2023-08-17T06:27:54;4.30;;;1.50;;
51981;SDS011;37998;53.416;6.730;2023-08-17T06:30:21;4.65;;;1.67;;
51981;SDS011;37998;53.416;6.730;2023-08-17T06:32:47;5.53;;;1.40;;
51981;SDS011;37998;53.416;6.730;2023-08-17T06:35:13;4.43;;;1.58;;
51981;SDS011;37998;53.416;6.730;2023-08-17T06:37:39;5.72;;;1.65;;
51981;SDS011;37998;53.416;6.730;2023-08-17T06:40:05;2.75;;;1.55;;
51981;SDS011;37998;53.416;6.730;2023-08-17T06:42:31;4.60;;;1.60;;
51981;SDS011;37998;53.416;6.730;2023-08-17T06:44:57;2.22;;;1.67;;
51981;SDS011;37998;53.416;6.730;2023-08-17T06:47:23;3.70;;;1.40;;
51981;SDS011;37998;53.416;6.730;2023-08-17T06:49:49;3.13;;;1.23;;
51981;SDS011;37998;53.416;6.730;2023-08-17T06:52:15;3.83;;;1.27;;
51981;SDS011;37998;53.416;6.730;2023-08-17T06:54:41;3.58;;;1.58;;
51981;SDS011;37998;53.416;6.730;2023-08-17T06:57:07;3.00;;;1.40;;
51981;SDS011;37998;53.416;6.730;2023-08-17T06:59:33;1.83;;;1.40;;
51981;SDS011;37998;53.416;6.730;2023-08-17T07:01:59;4.13;;;1.55;;
51981;SDS011;37998;53.416;6.730;2023-08-17T07:04:25;1.48;;;1.10;;
51981;SDS011;37998;53.416;6.730;2023-08-17T07:06:51;3.75;;;1.52;;
51981;SDS011;37998;53.416;6.730;2023-08-17T07:09:17;4.88;;;1.50;;
51981;SDS011;37998;53.416;6.730;2023-08-17T07:11:44;4.65;;;1.75;;
51981;SDS011;37998;53.416;6.730;2023-08-17T07:14:10;5.65;;;1.85;;
51981;SDS011;37998;53.416;6.730;2023-08-17T07:16:36;5.07;;;1.60;;
51981;SDS011;37998;53.416;6.730;2023-08-17T07:19:02;3.08;;;1.58;;
51981;SDS011;37998;53.416;6.730;2023-08-17T07:21:28;2.42;;;1.20;;
51981;SDS011;37998;53.416;6.730;2023-08-17T07:23:54;2.95;;;1.40;;
51981;SDS011;37998;53.416;6.730;2023-08-17T07:26:21;6.03;;;1.42;;
51981;SDS011;37998;53.416;6.730;2023-08-17T07:28:48;4.25;;;1.50;;
51981;SDS011;37998;53.416;6.730;2023-08-17T07:31:14;4.40;;;1.73;;
51981;SDS011;37998;53.416;6.730;2023-08-17T07:33:40;1.45;;;1.13;;
51981;SDS011;37998;53.416;6.730;2023-08-17T07:36:06;3.38;;;1.40;;
51981;SDS011;37998;53.416;6.730;2023-08-17T07:38:32;3.75;;;1.70;;
51981;SDS011;37998;53.416;6.730;2023-08-17T07:40:59;6.70;;;1.42;;
51981;SDS011;37998;53.416;6.730;2023-08-17T07:43:25;4.15;;;1.48;;
51981;SDS011;37998;53.416;6.730;2023-08-17T07:45:54;3.50;;;1.42;;
51981;SDS011;37998;53.416;6.730;2023-08-17T07:48:20;3.35;;;1.40;;
51981;SDS011;37998;53.416;6.730;2023-08-17T07:50:50;3.63;;;1.63;;
51981;SDS011;37998;53.416;6.730;2023-08-17T07:53:17;3.00;;;1.42;;
51981;SDS011;37998;53.416;6.730;2023-08-17T07:55:44;4.05;;;1.85;;
51981;SDS011;37998;53.416;6.730;2023-08-17T07:58:10;3.80;;;1.52;;
51981;SDS011;37998;53.416;6.730;2023-08-17T08:00:36;3.53;;;1.48;;
51981;SDS011;37998;53.416;6.730;2023-08-17T08:03:02;3.40;;;1.48;;
51981;SDS011;37998;53.416;6.730;2023-08-17T08:05:28;4.70;;;1.50;;
51981;SDS011;37998;53.416;6.730;2023-08-17T08:07:54;4.55;;;1.83;;
51981;SDS011;37998;53.416;6.730;2023-08-17T08:10:20;3.55;;;1.33;;
51981;SDS011;37998;53.416;6.730;2023-08-17T08:12:46;4.60;;;1.65;;
51981;SDS011;37998;53.416;6.730;2023-08-17T08:15:12;5.95;;;2.05;;
51981;SDS011;37998;53.416;6.730;2023-08-17T08:17:38;4.28;;;1.40;;
51981;SDS011;37998;53.416;6.730;2023-08-17T08:20:04;5.25;;;1.77;;
51981;SDS011;37998;53.416;6.730;2023-08-17T08:22:30;4.60;;;1.50;;
51981;SDS011;37998;53.416;6.730;2023-08-17T08:24:57;4.57;;;1.42;;
51981;SDS011;37998;53.416;6.730;2023-08-17T08:27:23;3.15;;;1.60;;
51981;SDS011;37998;53.416;6.730;2023-08-17T08:29:50;5.93;;;1.83;;
51981;SDS011;37998;53.416;6.730;2023-08-17T08:32:16;3.03;;;1.80;;
51981;SDS011;37998;53.416;6.730;2023-08-17T08:34:42;2.35;;;1.38;;
51981;SDS011;37998;53.416;6.730;2023-08-17T08:37:08;2.88;;;1.27;;
51981;SDS011;37998;53.416;6.730;2023-08-17T08:39:47;3.55;;;1.25;;
51981;SDS011;37998;53.416;6.730;2023-08-17T08:42:15;2.95;;;1.30;;
51981;SDS011;37998;53.416;6.730;2023-08-17T08:44:41;4.95;;;1.35;;
51981;SDS011;37998;53.416;6.730;2023-08-17T08:47:07;3.90;;;1.40;;
51981;SDS011;37998;53.416;6.730;2023-08-17T08:49:33;4.32;;;1.60;;
51981;SDS011;37998;53.416;6.730;2023-08-17T08:52:04;6.65;;;1.50;;
51981;SDS011;37998;53.416;6.730;2023-08-17T08:54:33;3.65;;;1.58;;
51981;SDS011;37998;53.416;6.730;2023-08-17T08:57:03;2.65;;;1.40;;
51981;SDS011;37998;53.416;6.730;2023-08-17T08:59:34;3.73;;;1.80;;
51981;SDS011;37998;53.416;6.730;2023-08-17T09:02:02;5.85;;;1.60;;
51981;SDS011;37998;53.416;6.730;2023-08-17T09:04:28;2.50;;;1.50;;
51981;SDS011;37998;53.416;6.730;2023-08-17T09:06:55;5.90;;;1.55;;
51981;SDS011;37998;53.416;6.730;2023-08-17T09:09:22;3.03;;;1.48;;
51981;SDS011;37998;53.416;6.730;2023-08-17T09:11:48;5.07;;;1.90;;
51981;SDS011;37998;53.416;6.730;2023-08-17T09:14:14;7.32;;;1.52;;
51981;SDS011;37998;53.416;6.730;2023-08-17T09:16:43;4.35;;;1.42;;
51981;SDS011;37998;53.416;6.730;2023-08-17T09:19:09;4.20;;;1.33;;
51981;SDS011;37998;53.416;6.730;2023-08-17T09:21:35;3.83;;;1.67;;
51981;SDS011;37998;53.416;6.730;2023-08-17T09:24:01;5.35;;;1.98;;
51981;SDS011;37998;53.416;6.730;2023-08-17T09:26:30;4.15;;;1.33;;
51981;SDS011;37998;53.416;6.730;2023-08-17T09:29:00;6.63;;;1.42;;
51981;SDS011;37998;53.416;6.730;2023-08-17T09:31:41;3.78;;;1.50;;
51981;SDS011;37998;53.416;6.730;2023-08-17T09:34:07;7.93;;;1.80;;
51981;SDS011;37998;53.416;6.730;2023-08-17T09:36:34;7.70;;;1.60;;
51981;SDS011;37998;53.416;6.730;2023-08-17T09:39:01;4.00;;;1.73;;
51981;SDS011;37998;53.416;6.730;2023-08-17T09:41:27;5.75;;;1.65;;
51981;SDS011;37998;53.416;6.730;2023-08-17T09:43:54;4.18;;;1.90;;
51981;SDS011;37998;53.416;6.730;2023-08-17T09:46:20;4.43;;;1.50;;
51981;SDS011;37998;53.416;6.730;2023-08-17T09:48:47;3.97;;;1.60;;
51981;SDS011;37998;53.416;6.730;2023-08-17T09:51:16;10.23;;;2.08;;
51981;SDS011;37998;53.416;6.730;2023-08-17T09:53:43;4.93;;;1.55;;
51981;SDS011;37998;53.416;6.730;2023-08-17T09:56:09;5.68;;;1.73;;
51981;SDS011;37998;53.416;6.730;2023-08-17T09:58:39;4.75;;;1.40;;
51981;SDS011;37998;53.416;6.730;2023-08-17T10:01:05;6.60;;;1.70;;
51981;SDS011;37998;53.416;6.730;2023-08-17T10:03:32;3.50;;;1.30;;
51981;SDS011;37998;53.416;6.730;2023-08-17T10:06:06;4.38;;;1.75;;
51981;SDS011;37998;53.416;6.730;2023-08-17T10:08:39;5.95;;;2.05;;
51981;SDS011;37998;53.416;6.730;2023-08-17T10:11:10;5.97;;;1.80;;
51981;SDS011;37998;53.416;6.730;2023-08-17T10:13:46;3.08;;;1.60;;
51981;SDS011;37998;53.416;6.730;2023-08-17T10:16:26;5.05;;;1.65;;
51981;SDS011;37998;53.416;6.730;2023-08-17T10:18:55;4.20;;;1.85;;
51981;SDS011;37998;53.416;6.730;2023-08-17T10:21:50;7.28;;;1.50;;
51981;SDS011;37998;53.416;6.730;2023-08-17T10:24:22;4.47;;;1.30;;
51981;SDS011;37998;53.416;6.730;2023-08-17T10:26:51;5.65;;;1.83;;
51981;SDS011;37998;53.416;6.730;2023-08-17T10:29:18;7.65;;;1.90;;
51981;SDS011;37998;53.416;6.730;2023-08-17T10:31:48;3.88;;;1.40;;
51981;SDS011;37998;53.416;6.730;2023-08-17T10:34:14;4.22;;;1.65;;
51981;SDS011;37998;53.416;6.730;2023-08-17T10:36:41;4.03;;;1.40;;
51981;SDS011;37998;53.416;6.730;2023-08-17T10:39:21;7.38;;;1.52;;
51981;SDS011;37998;53.416;6.730;2023-08-17T10:41:49;4.30;;;1.48;;
51981;SDS011;37998;53.416;6.730;2023-08-17T10:49:47;7.72;;;1.90;;
51981;SDS011;37998;53.416;6.730;2023-08-17T10:52:24;3.67;;;1.80;;
51981;SDS011;37998;53.416;6.730;2023-08-17T10:55:07;4.78;;;1.90;;
51981;SDS011;37998;53.416;6.730;2023-08-17T10:57:38;2.80;;;1.67;;
51981;SDS011;37998;53.416;6.730;2023-08-17T11:00:13;3.88;;;1.70;;
51981;SDS011;37998;53.416;6.730;2023-08-17T11:02:52;8.25;;;2.25;;
51981;SDS011;37998;53.416;6.730;2023-08-17T11:05:45;3.58;;;1.70;;
51981;SDS011;37998;53.416;6.730;2023-08-17T11:11:03;3.72;;;2.08;;
51981;SDS011;37998;53.416;6.730;2023-08-17T11:13:38;3.08;;;1.30;;
51981;SDS011;37998;53.416;6.730;2023-08-17T11:16:06;6.43;;;1.95;;
51981;SDS011;37998;53.416;6.730;2023-08-17T11:18:34;4.93;;;1.77;;
51981;SDS011;37998;53.416;6.730;2023-08-17T11:21:01;4.50;;;1.88;;
51981;SDS011;37998;53.416;6.730;2023-08-17T11:23:29;5.35;;;2.00;;
51981;SDS011;37998;53.416;6.730;2023-08-17T11:25:56;4.47;;;1.48;;
51981;SDS011;37998;53.416;6.730;2023-08-17T11:28:22;3.80;;;2.10;;
51981;SDS011;37998;53.416;6.730;2023-08-17T11:31:01;8.23;;;2.40;;
51981;SDS011;37998;53.416;6.730;2023-08-17T11:33:29;5.95;;;2.35;;
51981;SDS011;37998;53.416;6.730;2023-08-17T11:36:00;7.53;;;1.75;;
51981;SDS011;37998;53.416;6.730;2023-08-17T11:38:31;7.75;;;1.80;;
51981;SDS011;37998;53.416;6.730;2023-08-17T11:40:58;3.53;;;1.88;;
51981;SDS011;37998;53.416;6.730;2023-08-17T11:43:25;6.85;;;2.40;;
51981;SDS011;37998;53.416;6.730;2023-08-17T11:45:53;6.32;;;1.90;;
51981;SDS011;37998;53.416;6.730;2023-08-17T11:48:20;5.68;;;2.05;;
51981;SDS011;37998;53.416;6.730;2023-08-17T11:50:46;10.05;;;2.28;;
51981;SDS011;37998;53.416;6.730;2023-08-17T11:53:14;4.28;;;1.88;;
51981;SDS011;37998;53.416;6.730;2023-08-17T11:55:40;5.53;;;1.90;;
51981;SDS011;37998;53.416;6.730;2023-08-17T11:58:07;3.80;;;2.05;;
51981;SDS011;37998;53.416;6.730;2023-08-17T12:00:37;5.78;;;2.00;;
51981;SDS011;37998;53.416;6.730;2023-08-17T12:03:06;3.53;;;2.10;;
51981;SDS011;37998;53.416;6.730;2023-08-17T12:05:33;4.20;;;2.08;;
51981;SDS011;37998;53.416;6.730;2023-08-17T12:07:59;5.68;;;2.40;;
51981;SDS011;37998;53.416;6.730;2023-08-17T12:10:27;5.93;;;2.08;;
51981;SDS011;37998;53.416;6.730;2023-08-17T12:12:56;4.25;;;1.90;;
51981;SDS011;37998;53.416;6.730;2023-08-17T12:15:24;6.50;;;2.58;;
51981;SDS011;37998;53.416;6.730;2023-08-17T12:17:51;5.95;;;2.35;;
51981;SDS011;37998;53.416;6.730;2023-08-17T12:20:21;2.83;;;1.90;;
51981;SDS011;37998;53.416;6.730;2023-08-17T12:22:47;6.53;;;1.92;;
51981;SDS011;37998;53.416;6.730;2023-08-17T12:25:14;4.03;;;1.80;;
51981;SDS011;37998;53.416;6.730;2023-08-17T12:27:40;3.97;;;2.25;;
51981;SDS011;37998;53.416;6.730;2023-08-17T12:32:58;4.72;;;1.83;;
51981;SDS011;37998;53.416;6.730;2023-08-17T12:35:24;3.05;;;1.70;;
51981;SDS011;37998;53.416;6.730;2023-08-17T12:37:51;3.08;;;1.73;;
51981;SDS011;37998;53.416;6.730;2023-08-17T12:40:18;3.75;;;1.90;;
51981;SDS011;37998;53.416;6.730;2023-08-17T12:42:44;4.72;;;1.80;;
51981;SDS011;37998;53.416;6.730;2023-08-17T12:45:10;5.25;;;2.30;;
51981;SDS011;37998;53.416;6.730;2023-08-17T12:47:36;8.88;;;2.55;;
51981;SDS011;37998;53.416;6.730;2023-08-17T12:50:04;3.90;;;2.00;;
51981;SDS011;37998;53.416;6.730;2023-08-17T12:52:31;5.55;;;2.33;;
51981;SDS011;37998;53.416;6.730;2023-08-17T12:54:57;5.40;;;2.60;;
51981;SDS011;37998;53.416;6.730;2023-08-17T12:57:23;5.00;;;2.30;;
51981;SDS011;37998;53.416;6.730;2023-08-17T12:59:49;3.65;;;2.40;;
51981;SDS011;37998;53.416;6.730;2023-08-17T13:02:15;6.38;;;2.35;;
51981;SDS011;37998;53.416;6.730;2023-08-17T13:04:41;5.70;;;2.05;;
51981;SDS011;37998;53.416;6.730;2023-08-17T13:07:07;6.45;;;2.33;;
51981;SDS011;37998;53.416;6.730;2023-08-17T13:09:33;8.38;;;2.45;;
51981;SDS011;37998;53.416;6.730;2023-08-17T13:11:59;5.55;;;2.22;;
51981;SDS011;37998;53.416;6.730;2023-08-17T13:14:25;5.65;;;2.40;;
51981;SDS011;37998;53.416;6.730;2023-08-17T13:16:51;5.45;;;2.20;;
51981;SDS011;37998;53.416;6.730;2023-08-17T13:19:17;3.63;;;2.05;;
51981;SDS011;37998;53.416;6.730;2023-08-17T13:21:44;6.07;;;2.42;;
51981;SDS011;37998;53.416;6.730;2023-08-17T13:24:12;5.55;;;3.00;;
51981;SDS011;37998;53.416;6.730;2023-08-17T13:26:38;7.57;;;2.47;;
51981;SDS011;37998;53.416;6.730;2023-08-17T13:29:04;6.18;;;2.58;;
51981;SDS011;37998;53.416;6.730;2023-08-17T13:31:30;4.95;;;2.17;;
51981;SDS011;37998;53.416;6.730;2023-08-17T13:33:56;8.98;;;2.63;;
51981;SDS011;37998;53.416;6.730;2023-08-17T13:36:23;5.72;;;2.67;;
51981;SDS011;37998;53.416;6.730;2023-08-17T13:38:49;6.05;;;2.47;;
51981;SDS011;37998;53.416;6.730;2023-08-17T13:41:15;5.25;;;2.40;;
51981;SDS011;37998;53.416;6.730;2023-08-17T13:43:43;4.38;;;2.50;;
51981;SDS011;37998;53.416;6.730;2023-08-17T13:46:27;5.75;;;2.80;;
51981;SDS011;37998;53.416;6.730;2023-08-17T13:48:53;6.80;;;2.83;;
51981;SDS011;37998;53.416;6.730;2023-08-17T13:51:19;6.68;;;2.60;;
51981;SDS011;37998;53.416;6.730;2023-08-17T13:53:45;5.55;;;2.72;;
51981;SDS011;37998;53.416;6.730;2023-08-17T13:56:11;4.22;;;2.42;;
51981;SDS011;37998;53.416;6.730;2023-08-17T13:58:37;5.00;;;2.20;;
51981;SDS011;37998;53.416;6.730;2023-08-17T14:01:03;11.45;;;2.85;;
51981;SDS011;37998;53.416;6.730;2023-08-17T14:03:29;5.55;;;2.88;;
51981;SDS011;37998;53.416;6.730;2023-08-17T14:05:55;5.35;;;3.22;;
51981;SDS011;37998;53.416;6.730;2023-08-17T14:08:21;7.95;;;3.38;;
51981;SDS011;37998;53.416;6.730;2023-08-17T14:10:47;7.40;;;2.85;;
51981;SDS011;37998;53.416;6.730;2023-08-17T14:13:13;8.70;;;3.13;;
51981;SDS011;37998;53.416;6.730;2023-08-17T14:15:39;5.68;;;2.30;;
51981;SDS011;37998;53.416;6.730;2023-08-17T14:18:05;5.97;;;2.78;;
51981;SDS011;37998;53.416;6.730;2023-08-17T14:20:31;8.23;;;2.95;;
51981;SDS011;37998;53.416;6.730;2023-08-17T14:22:57;5.43;;;2.30;;
51981;SDS011;37998;53.416;6.730;2023-08-17T14:25:23;6.30;;;2.20;;
51981;SDS011;37998;53.416;6.730;2023-08-17T14:27:49;7.30;;;2.65;;
51981;SDS011;37998;53.416;6.730;2023-08-17T14:30:15;5.63;;;2.63;;
51981;SDS011;37998;53.416;6.730;2023-08-17T14:32:41;6.40;;;3.10;;
51981;SDS011;37998;53.416;6.730;2023-08-17T14:35:10;11.98;;;3.50;;
51981;SDS011;37998;53.416;6.730;2023-08-17T14:37:36;3.28;;;2.30;;
51981;SDS011;37998;53.416;6.730;2023-08-17T14:40:05;7.32;;;3.00;;
51981;SDS011;37998;53.416;6.730;2023-08-17T14:42:31;6.80;;;2.65;;
51981;SDS011;37998;53.416;6.730;2023-08-17T14:44:57;7.25;;;3.35;;
51981;SDS011;37998;53.416;6.730;2023-08-17T14:47:23;6.15;;;3.08;;
51981;SDS011;37998;53.416;6.730;2023-08-17T14:49:49;6.90;;;2.97;;
51981;SDS011;37998;53.416;6.730;2023-08-17T14:52:15;5.43;;;2.72;;
51981;SDS011;37998;53.416;6.730;2023-08-17T14:54:41;4.32;;;2.45;;
51981;SDS011;37998;53.416;6.730;2023-08-17T14:57:07;8.27;;;3.13;;
51981;SDS011;37998;53.416;6.730;2023-08-17T14:59:36;6.05;;;2.70;;
51981;SDS011;37998;53.416;6.730;2023-08-17T15:02:02;5.18;;;2.60;;